Time;durP1;ratioP1;P1;durP2;ratioP2;P2;SDS_P1;SDS_P2;PMS_P1;PMS_P2;Temp;Humidity;BMP_temperature;BMP_pressure;BME280_temperature;BME280_humidity;BME280_pressure;Samples;Min_cycle;Max_cycle;Signal;HPM_P1;HPM_P2
2021/04/14 00:00:35;;;;;;;1.50;0.90;;;;;;;22.62;51.47;102278.19;5052827;28;20469;-61
2021/04/14 00:03:02;;;;;;;2.53;1.45;;;;;;;22.61;51.33;102279.22;5052643;28;20029;-61
2021/04/14 00:05:37;;;;;;;2.85;1.48;;;;;;;22.54;51.69;102272.69;5052575;28;20032;-61
2021/04/14 00:08:06;;;;;;;4.40;1.30;;;;;;;22.56;51.65;102278.00;5052760;28;20036;-61
2021/04/14 00:10:35;;;;;;;3.70;1.42;;;;;;;22.52;51.98;102275.59;5052733;28;20100;-61
2021/04/14 00:13:03;;;;;;;2.10;1.10;;;;;;;22.51;52.30;102276.63;5052758;28;20029;-61
2021/04/14 00:15:41;;;;;;;5.00;1.70;;;;;;;22.52;52.55;102272.84;5054541;28;20017;-61
2021/04/14 00:18:07;;;;;;;2.15;1.10;;;;;;;22.48;52.53;102274.19;5072657;28;20475;-61
2021/04/14 00:20:33;;;;;;;2.72;1.38;;;;;;;22.48;52.84;102267.84;5072543;28;20068;-61
2021/04/14 00:22:59;;;;;;;2.60;1.20;;;;;;;22.54;52.89;102274.56;5071361;28;20361;-62
2021/04/14 00:25:28;;;;;;;3.58;1.55;;;;;;;22.50;53.20;102280.34;5072515;28;20044;-61
2021/04/14 00:27:54;;;;;;;2.90;1.30;;;;;;;22.48;53.14;102278.81;5064842;28;20021;-61
2021/04/14 00:30:20;;;;;;;2.72;1.17;;;;;;;22.48;53.22;102282.41;5052645;28;20013;-61
2021/04/14 00:32:45;;;;;;;2.58;1.52;;;;;;;22.47;53.27;102286.19;5052409;28;20475;-61
2021/04/14 00:35:11;;;;;;;2.22;1.05;;;;;;;22.48;53.09;102281.56;5051102;28;20052;-60
2021/04/14 00:37:36;;;;;;;2.88;1.33;;;;;;;22.46;53.62;102284.47;5052384;28;20032;-61
2021/04/14 00:40:05;;;;;;;3.25;1.58;;;;;;;22.44;53.54;102280.16;5052280;28;20068;-61
2021/04/14 00:42:31;;;;;;;2.72;1.17;;;;;;;22.45;53.40;102287.38;5052404;28;20045;-61
2021/04/14 00:44:56;;;;;;;2.30;1.10;;;;;;;22.45;53.31;102290.09;5052322;28;20052;-60
2021/04/14 00:47:21;;;;;;;3.47;1.42;;;;;;;22.48;53.05;102293.38;5057979;28;20025;-61
2021/04/14 00:49:48;;;;;;;2.13;1.13;;;;;;;22.46;53.02;102295.41;5052616;28;20021;-61
2021/04/14 00:52:13;;;;;;;2.47;1.30;;;;;;;22.46;52.89;102292.69;5052180;28;20476;-61
2021/04/14 00:54:39;;;;;;;2.67;1.30;;;;;;;22.43;52.43;102295.75;5052199;28;20104;-61
2021/04/14 00:57:05;;;;;;;3.17;1.20;;;;;;;22.49;52.16;102294.22;5052423;28;20025;-61
2021/04/14 00:59:30;;;;;;;4.47;1.55;;;;;;;22.48;52.44;102304.34;5052180;28;20390;-61
2021/04/14 01:01:57;;;;;;;3.22;1.42;;;;;;;22.52;52.20;102308.50;5052274;28;20021;-61
2021/04/14 01:04:22;;;;;;;3.45;1.35;;;;;;;22.58;52.16;102314.31;5052342;28;20028;-61
2021/04/14 01:06:48;;;;;;;3.08;1.25;;;;;;;22.54;52.56;102307.47;5052164;28;20029;-61
2021/04/14 01:09:13;;;;;;;4.40;1.48;;;;;;;22.58;51.96;102320.66;5052007;28;20384;-60
2021/04/14 01:11:39;;;;;;;2.38;1.33;;;;;;;22.62;52.44;102321.19;5052291;28;20460;-61
2021/04/14 01:14:05;;;;;;;3.17;1.30;;;;;;;22.62;52.69;102324.78;5052004;28;20025;-62
2021/04/14 01:16:30;;;;;;;4.22;1.35;;;;;;;22.65;51.85;102331.81;5055037;28;20021;-61
2021/04/14 01:18:55;;;;;;;2.40;1.05;;;;;;;22.64;53.11;102330.97;5055925;28;20032;-61
2021/04/14 01:21:22;;;;;;;3.13;1.10;;;;;;;22.70;52.11;102324.00;5055768;28;20052;-61
2021/04/14 01:23:48;;;;;;;4.15;1.40;;;;;;;22.74;52.37;102319.88;5055941;28;20411;-61
2021/04/14 01:26:13;;;;;;;3.25;1.40;;;;;;;22.75;51.92;102324.34;5055680;28;20025;-62
2021/04/14 01:28:41;;;;;;;3.40;1.58;;;;;;;22.70;52.30;102324.84;5041893;28;20056;-61
2021/04/14 01:31:10;;;;;;;2.28;1.33;;;;;;;22.55;52.21;102336.59;5035735;28;20096;-61
2021/04/14 01:33:36;;;;;;;2.42;1.52;;;;;;;22.49;52.91;102340.81;5035905;28;20108;-60
2021/04/14 01:36:04;;;;;;;1.90;1.20;;;;;;;22.44;53.44;102340.47;5034370;28;20033;-62
2021/04/14 01:38:30;;;;;;;2.85;1.20;;;;;;;22.47;53.95;102340.13;5035616;28;20065;-60
2021/04/14 01:40:57;;;;;;;3.33;1.10;;;;;;;22.48;53.65;102337.22;5035689;28;20029;-61
2021/04/14 01:43:23;;;;;;;1.92;1.10;;;;;;;22.40;53.96;102337.19;5034193;28;20026;-60
2021/04/14 01:45:48;;;;;;;3.95;1.25;;;;;;;22.37;52.90;102344.88;5042798;28;20037;-61
2021/04/14 01:48:15;;;;;;;2.22;1.17;;;;;;;22.29;52.26;102350.28;5056934;28;20100;-60
2021/04/14 01:50:41;;;;;;;3.88;1.55;;;;;;;22.21;52.10;102351.13;5075542;28;20021;-61
2021/04/14 01:53:10;;;;;;;2.00;1.17;;;;;;;22.19;51.77;102353.16;5075296;28;20384;-61
2021/04/14 01:55:36;;;;;;;3.85;1.23;;;;;;;22.14;51.67;102356.34;5075109;28;20055;-61
2021/04/14 01:58:01;;;;;;;1.77;1.10;;;;;;;22.15;51.25;102357.22;5069497;28;20033;-61
2021/04/14 02:00:42;;;;;;;3.53;1.33;;;;;;;22.13;51.53;102360.13;5055028;28;20131;-61
2021/04/14 02:03:08;;;;;;;3.05;1.25;;;;;;;22.12;50.59;102365.75;5055077;28;20025;-61
2021/04/14 02:05:33;;;;;;;4.28;1.67;;;;;;;22.07;51.59;102354.44;5055177;28;20056;-60
2021/04/14 02:07:59;;;;;;;2.10;1.00;;;;;;;22.04;52.03;102355.59;5055047;28;20083;-61
2021/04/14 02:10:28;;;;;;;5.13;1.48;;;;;;;22.03;52.01;102363.97;5054892;28;20298;-61
2021/04/14 02:12:56;;;;;;;2.75;1.10;;;;;;;22.06;52.38;102370.00;5055005;28;20021;-61
2021/04/14 02:15:25;;;;;;;2.97;1.42;;;;;;;22.06;52.76;102370.00;5054993;28;20039;-61
2021/04/14 02:17:51;;;;;;;2.75;1.02;;;;;;;22.05;52.79;102368.28;5054573;28;20017;-61
2021/04/14 02:20:17;;;;;;;4.72;1.40;;;;;;;22.11;53.04;102377.72;5053276;28;20021;-62
2021/04/14 02:22:42;;;;;;;1.45;1.20;;;;;;;22.12;52.99;102368.50;5054835;28;20025;-61
2021/04/14 02:25:10;;;;;;;2.80;1.23;;;;;;;22.10;53.92;102373.28;5054989;28;20029;-61
2021/04/14 02:27:36;;;;;;;2.20;1.15;;;;;;;22.13;53.33;102370.22;5054606;28;20052;-61
2021/04/14 02:30:07;;;;;;;2.03;1.10;;;;;;;22.11;53.74;102373.13;5054566;28;20064;-61
2021/04/14 02:32:32;;;;;;;4.97;1.70;;;;;;;22.12;53.95;102373.97;5054600;28;20411;-61
2021/04/14 02:34:58;;;;;;;4.35;1.50;;;;;;;22.10;53.34;102379.63;5054360;28;20039;-61
2021/04/14 02:37:23;;;;;;;4.07;1.60;;;;;;;22.13;54.14;102375.69;5054417;28;20035;-61
2021/04/14 02:39:48;;;;;;;1.20;0.95;;;;;;;22.10;53.59;102382.34;5054440;28;20492;-61
2021/04/14 02:42:13;;;;;;;4.25;1.42;;;;;;;22.10;53.36;102381.50;5054264;28;20056;-61
2021/04/14 02:44:39;;;;;;;3.13;1.40;;;;;;;22.10;53.08;102387.84;5054500;28;20079;-61
2021/04/14 02:47:04;;;;;;;2.92;1.30;;;;;;;22.13;53.78;102386.66;5054320;28;20036;-61
2021/04/14 02:49:29;;;;;;;3.42;1.20;;;;;;;22.09;53.40;102390.72;5054297;28;20028;-60
2021/04/14 02:51:55;;;;;;;2.88;1.13;;;;;;;22.08;53.39;102389.88;5054336;28;20020;-61
2021/04/14 02:54:21;;;;;;;2.90;1.38;;;;;;;22.06;53.77;102319.84;5053917;28;20075;-61
2021/04/14 02:56:46;;;;;;;2.55;1.25;;;;;;;22.10;52.67;102316.63;5054208;28;20036;-61
2021/04/14 02:59:12;;;;;;;2.72;1.10;;;;;;;22.09;53.38;102305.81;5053923;28;20029;-60
2021/04/14 03:01:38;;;;;;;2.80;1.30;;;;;;;22.13;53.34;102419.53;5054503;28;20031;-61
2021/04/14 03:04:03;;;;;;;2.33;1.08;;;;;;;22.09;53.17;102407.16;5053890;28;20491;-61
2021/04/14 03:06:28;;;;;;;3.47;1.23;;;;;;;22.06;52.67;102402.00;5054244;28;20096;-61
2021/04/14 03:08:54;;;;;;;4.25;1.48;;;;;;;22.10;53.48;102411.63;5053954;28;20025;-61
2021/04/14 03:11:19;;;;;;;2.70;1.50;;;;;;;22.11;52.62;102419.69;5053759;28;20048;-61
2021/04/14 03:13:45;;;;;;;2.15;1.17;;;;;;;22.15;52.39;102401.91;5053839;28;20029;-61
2021/04/14 03:16:10;;;;;;;2.55;1.13;;;;;;;22.18;52.97;102418.03;5065141;28;20055;-61
2021/04/14 03:18:35;;;;;;;2.08;0.90;;;;;;;22.21;52.61;102411.38;5073726;28;20476;-61
2021/04/14 03:21:01;;;;;;;3.00;1.20;;;;;;;22.18;52.85;102412.56;5073569;28;20040;-61
2021/04/14 03:23:26;;;;;;;3.42;1.38;;;;;;;22.23;53.00;102414.81;5073902;28;20031;-61
2021/04/14 03:25:52;;;;;;;3.20;1.30;;;;;;;22.25;53.53;102411.91;5073609;28;20025;-59
2021/04/14 03:28:17;;;;;;;3.78;1.20;;;;;;;22.28;53.02;102417.94;5054144;28;20027;-59
2021/04/14 03:30:43;;;;;;;3.38;1.30;;;;;;;22.27;53.29;102418.09;5053539;28;20053;-59
2021/04/14 03:33:10;;;;;;;2.60;1.40;;;;;;;22.32;52.58;102422.06;5053246;28;20049;-59
2021/04/14 03:35:35;;;;;;;2.92;1.40;;;;;;;22.35;53.56;102419.03;5053411;28;20025;-59
2021/04/14 03:38:01;;;;;;;4.13;1.25;;;;;;;22.43;52.55;102432.78;5052814;28;20441;-59
2021/04/14 03:40:27;;;;;;;3.15;1.60;;;;;;;22.40;53.30;102427.63;5053162;28;20075;-59
2021/04/14 03:42:54;;;;;;;2.88;1.40;;;;;;;22.27;53.42;102429.91;5051955;28;20020;-59
2021/04/14 03:45:29;;;;;;;1.73;1.10;;;;;;;22.23;53.84;102428.50;5059898;28;20066;-59
2021/04/14 03:47:54;;;;;;;3.17;1.55;;;;;;;22.14;55.25;102433.06;5072806;28;20035;-59
2021/04/14 03:50:21;;;;;;;3.50;1.30;;;;;;;22.16;55.31;102435.63;5072996;28;20021;-58
2021/04/14 03:52:48;;;;;;;2.38;1.20;;;;;;;22.27;54.77;102442.75;5057080;28;20526;-59
2021/04/14 03:55:16;;;;;;;3.00;1.23;;;;;;;22.14;54.42;102448.63;5051482;28;20057;-59
2021/04/14 03:57:41;;;;;;;1.98;1.10;;;;;;;22.03;54.45;102457.06;5053028;28;20104;-59
2021/04/14 04:00:09;;;;;;;2.00;1.20;;;;;;;21.96;53.67;102453.22;5060569;28;20446;-59
2021/04/14 04:02:34;;;;;;;2.67;1.00;;;;;;;22.84;50.51;102457.72;5072954;28;20426;-59
2021/04/14 04:04:59;;;;;;;2.22;1.05;;;;;;;23.32;48.93;102450.75;5072755;28;20471;-59
2021/04/14 04:07:25;;;;;;;2.47;1.30;;;;;;;23.61;48.74;102462.22;5055326;28;20017;-59
2021/04/14 04:09:50;;;;;;;3.00;1.45;;;;;;;23.84;48.45;102445.09;5052835;28;20017;-58
2021/04/14 04:12:15;;;;;;;3.65;1.67;;;;;;;23.90;48.88;102458.16;5052716;28;20414;-59
2021/04/14 04:14:51;;;;;;;3.10;1.23;;;;;;;24.05;49.01;102459.22;5053524;28;20029;-59
2021/04/14 04:17:18;;;;;;;2.88;1.13;;;;;;;24.16;49.22;102467.09;5052619;28;20040;-59
2021/04/14 04:19:44;;;;;;;3.83;1.63;;;;;;;24.22;49.25;102466.44;5052627;28;20031;-59
2021/04/14 04:22:11;;;;;;;2.20;1.10;;;;;;;24.21;50.21;102456.47;5052543;28;20099;-59
2021/04/14 04:24:37;;;;;;;2.85;1.15;;;;;;;24.28;50.15;102471.25;5052667;28;20039;-59
2021/04/14 04:27:02;;;;;;;3.90;1.52;;;;;;;24.36;50.42;102461.31;5051842;28;20032;-59
2021/04/14 04:29:28;;;;;;;3.42;1.58;;;;;;;24.40;50.13;102459.94;5032628;28;20049;-59
2021/04/14 04:31:53;;;;;;;2.50;1.33;;;;;;;24.40;50.43;102469.03;5032537;28;20021;-58
2021/04/14 04:34:18;;;;;;;2.65;1.42;;;;;;;24.42;50.07;102466.13;5032484;28;20029;-59
2021/04/14 04:36:44;;;;;;;4.32;1.30;;;;;;;24.46;49.97;102472.97;5068440;28;20099;-59
2021/04/14 04:39:09;;;;;;;3.05;1.42;;;;;;;24.47;50.64;102472.81;5072309;28;20112;-59
2021/04/14 04:41:35;;;;;;;2.55;1.23;;;;;;;24.55;50.09;102474.72;5072575;28;20021;-59
2021/04/14 04:44:00;;;;;;;2.10;1.00;;;;;;;24.54;50.54;102475.75;5072330;28;20111;-58
2021/04/14 04:46:25;;;;;;;4.15;1.40;;;;;;;24.62;50.32;102477.59;5069087;28;20022;-59
2021/04/14 04:48:50;;;;;;;4.72;1.50;;;;;;;24.63;50.01;102480.19;5052346;28;20021;-59
2021/04/14 04:51:16;;;;;;;4.32;1.38;;;;;;;24.65;50.25;102486.34;5054763;28;20025;-59
2021/04/14 04:53:41;;;;;;;2.78;1.30;;;;;;;24.66;50.46;102496.31;5056537;28;20037;-58
2021/04/14 04:56:06;;;;;;;2.53;1.15;;;;;;;24.69;50.09;102496.00;5056154;28;20135;-59
2021/04/14 04:58:32;;;;;;;2.60;1.30;;;;;;;24.68;50.17;102494.25;5056296;28;20108;-59
2021/04/14 05:00:57;;;;;;;3.53;1.80;;;;;;;24.72;50.09;102503.03;5056393;28;20020;-59
2021/04/14 05:03:25;;;;;;;3.50;1.90;;;;;;;24.68;50.19;102477.75;5056175;28;20066;-59
2021/04/14 05:05:51;;;;;;;3.38;1.30;;;;;;;24.77;49.38;102497.88;5055188;28;20052;-58
2021/04/14 05:08:16;;;;;;;4.50;1.63;;;;;;;24.80;49.44;102497.50;5056318;28;20367;-59
2021/04/14 05:10:42;;;;;;;2.90;1.27;;;;;;;24.80;48.96;102495.63;5056255;28;20119;-58
2021/04/14 05:13:09;;;;;;;2.65;1.70;;;;;;;24.86;48.73;102500.44;5056008;28;20041;-59
2021/04/14 05:15:38;;;;;;;3.03;1.45;;;;;;;24.90;48.84;102504.56;5056174;28;20116;-58
2021/04/14 05:18:04;;;;;;;2.97;1.13;;;;;;;24.89;49.48;102508.34;5055934;28;20060;-59
2021/04/14 05:20:29;;;;;;;5.00;1.70;;;;;;;24.94;49.03;102515.19;5055878;28;20108;-58
2021/04/14 05:22:55;;;;;;;4.40;1.50;;;;;;;24.93;49.40;102519.00;5054711;28;20482;-59
2021/04/14 05:25:24;;;;;;;3.28;1.20;;;;;;;24.93;49.62;102519.00;5055665;28;20045;-59
2021/04/14 05:27:51;;;;;;;2.78;1.50;;;;;;;24.97;48.80;102523.09;5048761;28;20022;-59
2021/04/14 05:30:17;;;;;;;4.28;1.70;;;;;;;25.01;49.03;102524.50;5035700;28;20045;-59
2021/04/14 05:32:43;;;;;;;3.47;1.80;;;;;;;24.97;49.41;102520.34;5035858;28;20072;-59
2021/04/14 05:35:10;;;;;;;4.07;1.60;;;;;;;25.02;49.18;102526.22;5043061;28;20033;-59
2021/04/14 05:37:35;;;;;;;2.78;1.25;;;;;;;24.99;49.94;102523.78;5056002;28;20220;-59
2021/04/14 05:40:00;;;;;;;4.22;1.35;;;;;;;24.99;49.15;102524.63;5055491;28;20129;-59
2021/04/14 05:42:26;;;;;;;3.85;1.83;;;;;;;24.98;49.68;102527.56;5055468;28;20111;-59
2021/04/14 05:44:51;;;;;;;3.08;1.35;;;;;;;24.98;49.40;102524.81;5055530;28;20036;-59
2021/04/14 05:47:17;;;;;;;4.40;1.75;;;;;;;24.98;49.61;102533.94;5055358;28;20025;-59
2021/04/14 05:49:42;;;;;;;2.47;1.30;;;;;;;24.93;49.47;102530.00;5055460;28;20029;-59
2021/04/14 05:52:08;;;;;;;4.15;1.60;;;;;;;25.00;48.55;102525.53;5055267;28;20056;-59
2021/04/14 05:54:33;;;;;;;2.58;1.45;;;;;;;25.02;49.60;102515.19;5055199;28;20033;-58
2021/04/14 05:56:59;;;;;;;4.15;1.50;;;;;;;25.09;50.03;102536.34;5055304;28;20475;-58
2021/04/14 05:59:24;;;;;;;2.95;1.17;;;;;;;25.09;49.72;102535.50;5053222;28;20025;-59
2021/04/14 06:01:49;;;;;;;4.43;2.13;;;;;;;25.13;50.08;102536.84;5054679;28;20060;-59
2021/04/14 06:04:17;;;;;;;4.38;1.70;;;;;;;25.15;49.92;102540.28;5055365;28;20031;-59
2021/04/14 06:06:42;;;;;;;6.15;1.88;;;;;;;25.13;49.86;102543.22;5074445;28;20059;-58
2021/04/14 06:09:09;;;;;;;3.67;2.20;;;;;;;25.18;49.91;102545.44;5054540;28;20482;-59
2021/04/14 06:11:35;;;;;;;2.50;1.45;;;;;;;25.23;50.65;102537.53;5055101;28;20025;-59
2021/04/14 06:14:00;;;;;;;4.30;2.42;;;;;;;25.24;50.98;102544.75;5053419;28;20028;-59
2021/04/14 06:16:26;;;;;;;5.07;1.70;;;;;;;25.29;51.58;102552.47;5050117;28;20349;-59
2021/04/14 06:18:51;;;;;;;3.90;1.85;;;;;;;25.21;52.05;102556.13;5054134;28;20032;-58
2021/04/14 06:21:17;;;;;;;5.88;2.30;;;;;;;25.32;53.07;102550.22;5051433;28;20541;-59
2021/04/14 06:23:43;;;;;;;5.90;2.13;;;;;;;25.30;52.05;102549.53;5054663;28;20487;-59
2021/04/14 06:28:36;;;;;;;2.55;1.55;;;;;;;25.31;52.51;102556.75;5052682;28;20051;-59
2021/04/14 06:31:02;;;;;;;3.28;1.45;;;;;;;25.28;53.32;102557.13;5050903;28;20095;-60
2021/04/14 06:33:28;;;;;;;4.15;1.85;;;;;;;25.27;51.99;102563.66;5054015;28;20017;-60
2021/04/14 06:35:54;;;;;;;2.60;1.38;;;;;;;25.20;52.60;102559.91;5051761;28;20031;-60
2021/04/14 06:38:26;;;;;;;3.08;1.23;;;;;;;25.12;53.09;102555.25;5053619;28;20116;-60
2021/04/14 06:41:51;;;;;;;3.97;1.73;;;;;;;25.12;52.55;102562.66;5051432;28;20368;-60
2021/04/14 06:44:05;;;;;;;3.63;1.10;;;;;;;25.09;51.94;102568.53;5047313;28;20086;-60
2021/04/14 06:46:34;;;;;;;3.53;1.50;;;;;;;25.06;52.61;102569.72;5051085;28;20414;-60
2021/04/14 06:49:37;;;;;;;4.32;1.73;;;;;;;25.04;52.22;102559.94;5050540;28;20023;-60
2021/04/14 06:52:34;;;;;;;4.00;1.67;;;;;;;25.03;51.19;102580.25;5052194;28;20036;-60
2021/04/14 06:55:15;;;;;;;3.10;1.55;;;;;;;25.04;50.89;102570.94;5047440;28;20041;-59
2021/04/14 06:57:46;;;;;;;4.82;2.08;;;;;;;24.97;52.44;102581.75;5049115;28;20411;-60
2021/04/14 07:00:20;;;;;;;4.28;1.83;;;;;;;25.08;50.95;102583.31;5050675;28;20480;-60
2021/04/14 07:02:47;;;;;;;2.85;1.92;;;;;;;25.09;50.63;102576.78;5053508;28;20040;-60
2021/04/14 07:05:19;;;;;;;3.25;1.45;;;;;;;25.10;50.07;102581.25;5050197;28;20041;-60
2021/04/14 07:07:47;;;;;;;3.17;1.90;;;;;;;25.13;49.86;102586.41;5050423;28;20661;-60
2021/04/14 07:10:18;;;;;;;3.72;1.48;;;;;;;25.16;49.55;102592.41;5051145;28;20029;-60
2021/04/14 07:12:43;;;;;;;4.25;1.92;;;;;;;25.09;50.10;102585.03;5052475;28;20017;-59
2021/04/14 07:15:11;;;;;;;3.03;1.48;;;;;;;25.17;50.00;102585.00;5052964;28;20028;-60
2021/04/14 07:17:42;;;;;;;3.65;1.50;;;;;;;25.15;49.62;102584.31;5050517;28;20036;-60
2021/04/14 07:20:23;;;;;;;2.85;1.20;;;;;;;25.14;49.82;102596.38;5052315;28;20028;-60
2021/04/14 07:23:07;;;;;;;3.65;1.50;;;;;;;25.12;51.00;102591.03;5051697;28;20108;-60
2021/04/14 07:25:56;;;;;;;2.90;1.20;;;;;;;25.19;50.71;102591.19;5053263;28;20422;-59
2021/04/14 07:28:39;;;;;;;3.63;1.75;;;;;;;25.17;50.48;102599.63;5051286;28;20055;-59
2021/04/14 07:31:12;;;;;;;5.38;1.95;;;;;;;25.13;50.65;102602.91;5053033;28;20055;-61
2021/04/14 07:33:54;;;;;;;3.03;1.55;;;;;;;25.21;49.21;102604.81;5053319;28;20028;-60
2021/04/14 07:36:41;;;;;;;2.25;1.40;;;;;;;25.16;49.56;102614.41;5066766;28;20386;-60
2021/04/14 07:39:18;;;;;;;4.90;1.98;;;;;;;25.12;49.88;102615.81;5058146;28;20372;-60
2021/04/14 07:42:05;;;;;;;2.40;1.33;;;;;;;25.14;49.66;102615.63;5052946;28;20029;-60
2021/04/14 07:45:06;;;;;;;4.82;1.65;;;;;;;25.08;50.15;102606.19;5050084;28;20066;-60
2021/04/14 07:47:33;;;;;;;2.72;1.30;;;;;;;25.10;50.18;102609.63;5052739;28;20067;-60
2021/04/14 07:49:59;;;;;;;5.03;1.63;;;;;;;25.19;50.59;102618.72;5052101;28;20172;-61
2021/04/14 07:52:29;;;;;;;3.67;1.33;;;;;;;25.23;50.47;102620.09;5050501;28;20052;-61
2021/04/14 07:54:56;;;;;;;3.85;1.60;;;;;;;25.27;51.15;102621.47;5051737;28;20040;-60
2021/04/14 07:57:39;;;;;;;4.72;2.22;;;;;;;25.25;51.05;102622.69;5051473;28;20320;-61
2021/04/14 08:00:32;;;;;;;4.47;2.10;;;;;;;25.28;50.41;102617.69;5051612;28;20486;-61
2021/04/14 08:03:29;;;;;;;4.20;1.55;;;;;;;25.29;51.55;102613.88;5052762;28;20488;-61
2021/04/14 08:06:28;;;;;;;3.33;2.15;;;;;;;25.31;51.82;102628.34;5030697;28;20052;-61
2021/04/14 08:08:54;;;;;;;3.63;1.60;;;;;;;25.33;51.34;102623.50;4959125;28;20491;-60
2021/04/14 08:11:31;;;;;;;5.15;1.92;;;;;;;25.36;50.63;102630.56;4958910;28;20637;-60
2021/04/14 08:14:11;;;;;;;6.22;2.42;;;;;;;25.41;50.59;102618.00;4970968;28;20035;-60
2021/04/14 08:16:41;;;;;;;4.30;1.60;;;;;;;25.42;51.18;102624.38;4972587;28;20560;-60
2021/04/14 08:19:23;;;;;;;4.85;2.00;;;;;;;25.44;52.00;102623.16;4972674;28;20066;-60
2021/04/14 08:22:02;;;;;;;3.22;1.40;;;;;;;25.41;53.27;102623.50;4972690;28;20541;-61
2021/04/14 08:24:32;;;;;;;3.03;1.50;;;;;;;25.37;53.51;102622.16;4970115;28;20490;-61
2021/04/14 08:27:00;;;;;;;4.78;1.85;;;;;;;25.33;53.58;102634.53;4972290;28;20525;-61
2021/04/14 08:29:26;;;;;;;4.82;2.10;;;;;;;25.30;53.29;102626.63;4949526;28;20047;-59
2021/04/14 08:31:53;;;;;;;2.72;1.30;;;;;;;25.29;52.31;102633.16;4969685;28;20438;-61
2021/04/14 08:34:37;;;;;;;3.78;2.13;;;;;;;25.34;52.29;102638.13;4970152;28;20039;-60
2021/04/14 08:37:08;;;;;;;2.63;1.45;;;;;;;25.20;52.00;102628.72;4954874;28;20471;-65
2021/04/14 08:39:33;;;;;;;3.75;1.25;;;;;;;25.12;51.69;102634.22;4951574;29;20035;-59
2021/04/14 08:42:26;;;;;;;1.90;1.13;;;;;;;25.15;49.61;102636.63;4956283;28;20089;-60
2021/04/14 08:44:56;;;;;;;2.88;0.82;;;;;;;25.12;50.01;102643.34;5025698;28;20683;-60
2021/04/14 08:47:21;;;;;;;3.13;1.38;;;;;;;25.24;50.66;102652.09;5050088;28;20107;-60
2021/04/14 08:49:51;;;;;;;2.17;1.13;;;;;;;25.30;50.09;102642.28;5050432;28;20092;-62
2021/04/14 08:52:21;;;;;;;3.13;1.63;;;;;;;25.31;50.42;102638.50;5050094;28;20783;-59
2021/04/14 08:54:48;;;;;;;5.07;2.05;;;;;;;25.34;50.93;102652.75;5050776;28;20044;-60
2021/04/14 08:57:14;;;;;;;4.30;1.90;;;;;;;25.36;50.98;102649.81;5048313;28;20041;-60
2021/04/14 08:59:41;;;;;;;4.15;1.73;;;;;;;25.34;51.54;102658.25;5050341;28;20509;-60
2021/04/14 09:02:08;;;;;;;2.95;1.52;;;;;;;25.37;50.64;102651.56;5050473;28;20109;-61
2021/04/14 09:04:34;;;;;;;3.45;1.40;;;;;;;25.31;51.39;102647.59;5051645;28;20033;-60
2021/04/14 09:07:03;;;;;;;3.95;1.95;;;;;;;25.33;51.06;102653.78;5050210;28;20033;-61
2021/04/14 09:09:30;;;;;;;6.10;2.10;;;;;;;25.31;52.06;102644.84;5051679;28;20398;-61
2021/04/14 09:12:05;;;;;;;2.33;1.48;;;;;;;25.29;50.55;102657.94;5051455;28;20071;-60
2021/04/14 09:14:33;;;;;;;1.77;1.20;;;;;;;25.28;50.43;102661.72;5051178;28;20053;-61
2021/04/14 09:17:03;;;;;;;2.88;1.50;;;;;;;25.30;50.74;102659.66;5050004;28;20163;-60
2021/04/14 09:19:35;;;;;;;3.10;1.65;;;;;;;25.26;50.11;102658.28;5050429;28;20033;-62
2021/04/14 09:22:16;;;;;;;4.63;2.05;;;;;;;25.32;49.85;102659.47;5050382;28;20029;-60
2021/04/14 09:24:52;;;;;;;6.63;2.30;;;;;;;25.27;51.33;102659.16;5044431;28;20108;-59
2021/04/14 09:27:33;;;;;;;4.25;2.40;;;;;;;25.33;50.45;102653.78;5050344;28;20032;-62
2021/04/14 09:30:31;;;;;;;3.78;1.80;;;;;;;25.36;50.51;102663.59;5050862;28;20021;-60
2021/04/14 09:33:18;;;;;;;4.45;2.35;;;;;;;25.36;51.05;102656.22;4991635;28;20452;-61
2021/04/14 09:35:59;;;;;;;6.38;1.77;;;;;;;25.40;50.83;102660.34;4931168;29;20040;-61
2021/04/14 09:38:34;;;;;;;4.05;2.15;;;;;;;25.40;50.47;102663.09;4935394;29;20168;-60
2021/04/14 09:41:23;;;;;;;3.88;2.05;;;;;;;25.50;51.18;102666.50;4935590;29;20590;-61
2021/04/14 09:43:49;;;;;;;5.70;2.00;;;;;;;25.55;50.25;102667.88;4939635;29;20044;-60
2021/04/14 09:46:28;;;;;;;4.97;1.67;;;;;;;25.50;50.85;102672.00;4934671;29;20115;-59
2021/04/14 09:48:54;;;;;;;3.45;2.03;;;;;;;25.38;51.68;102656.91;4935569;29;20051;-61
2021/04/14 09:51:33;;;;;;;5.60;2.15;;;;;;;25.43;51.00;102664.63;4934640;29;20536;-61
2021/04/14 09:54:17;;;;;;;6.00;1.95;;;;;;;25.37;51.80;102655.19;4933957;29;20040;-60
2021/04/14 09:56:50;;;;;;;3.90;1.77;;;;;;;25.36;51.93;102663.59;4929973;29;20047;-60
2021/04/14 09:59:20;;;;;;;5.07;1.98;;;;;;;25.40;50.22;102654.81;4934349;29;20040;-60
2021/04/14 10:01:48;;;;;;;3.13;1.75;;;;;;;25.39;50.47;102652.25;4935052;29;20032;-60
2021/04/14 10:04:18;;;;;;;3.97;1.45;;;;;;;25.34;51.02;102652.75;4932908;29;20031;-60
2021/04/14 10:06:46;;;;;;;3.05;1.58;;;;;;;25.34;50.03;102654.66;4942906;29;20269;-60
2021/04/14 10:09:34;;;;;;;1.85;1.10;;;;;;;25.07;51.39;102664.16;4984677;28;20041;-62
2021/04/14 10:12:42;;;;;;;2.40;0.90;;;;;;;25.06;49.67;102659.69;4981968;28;20065;-60
2021/04/14 10:15:08;;;;;;;2.03;1.00;;;;;;;25.07;49.60;102664.16;5047493;28;20037;-61
2021/04/14 10:17:34;;;;;;;2.17;0.98;;;;;;;25.03;48.99;102669.16;5054683;28;20044;-63
2021/04/14 10:20:12;;;;;;;4.22;1.10;;;;;;;24.98;49.17;102673.41;5054592;28;20072;-60
2021/04/14 10:22:49;;;;;;;3.47;1.48;;;;;;;24.92;48.19;102663.94;5060122;28;20059;-59
2021/04/14 10:25:26;;;;;;;2.70;1.08;;;;;;;24.97;47.79;102666.19;5054716;28;20021;-59
2021/04/14 10:28:01;;;;;;;2.63;1.20;;;;;;;24.98;48.33;102648.63;5051268;28;20478;-60
2021/04/14 10:30:28;;;;;;;2.75;1.02;;;;;;;24.99;47.94;102653.97;5050131;28;20021;-59
2021/04/14 10:33:02;;;;;;;2.20;1.15;;;;;;;24.95;47.21;102652.59;5050774;28;20036;-59
2021/04/14 10:35:27;;;;;;;2.83;0.90;;;;;;;24.95;47.66;102671.00;5051193;28;20098;-60
2021/04/14 10:37:54;;;;;;;2.90;1.23;;;;;;;25.05;47.23;102677.22;5052924;28;20111;-59
2021/04/14 10:40:31;;;;;;;2.80;1.13;;;;;;;24.97;48.40;102677.19;5052366;28;20606;-60
2021/04/14 10:43:08;;;;;;;2.08;1.00;;;;;;;25.00;47.25;102676.88;5050964;28;20021;-59
2021/04/14 10:45:33;;;;;;;3.25;1.10;;;;;;;25.05;49.67;102671.72;5052008;28;20059;-59
2021/04/14 10:48:04;;;;;;;2.95;1.40;;;;;;;25.10;50.38;102677.56;5051960;28;20491;-60
2021/04/14 10:50:32;;;;;;;11.50;1.95;;;;;;;25.17;49.62;102675.81;5052959;28;20021;-60
2021/04/14 10:53:06;;;;;;;42.42;7.28;;;;;;;25.18;51.38;102685.81;5047760;28;20057;-60
2021/04/14 10:55:39;;;;;;;24.83;4.22;;;;;;;25.23;49.68;102675.16;5052375;28;20480;-60
2021/04/14 10:58:07;;;;;;;15.48;3.05;;;;;;;25.15;51.30;102683.41;5052780;28;20036;-60
2021/04/14 11:00:36;;;;;;;7.95;2.40;;;;;;;25.30;50.18;102681.69;5053974;28;20119;-60
2021/04/14 11:03:08;;;;;;;6.40;2.70;;;;;;;25.31;50.05;102672.38;5063617;28;20526;-60
2021/04/14 11:05:38;;;;;;;5.00;1.70;;;;;;;25.26;50.00;102680.31;5055806;28;20041;-60
2021/04/14 11:08:04;;;;;;;3.75;1.10;;;;;;;24.60;53.09;102689.53;5054556;28;20438;-59
2021/04/14 11:10:34;;;;;;;3.00;1.10;;;;;;;24.28;53.74;102691.13;5064300;28;20017;-59
2021/04/14 11:13:00;;;;;;;1.95;0.90;;;;;;;24.11;54.88;102689.34;5053054;28;20025;-59
2021/04/14 11:15:28;;;;;;;1.20;1.00;;;;;;;23.98;55.01;102688.94;5052591;28;20048;-59
2021/04/14 11:18:03;;;;;;;7.43;1.50;;;;;;;23.85;54.88;102688.50;5053528;28;20021;-60
2021/04/14 11:20:57;;;;;;;17.88;1.90;;;;;;;23.79;54.82;102678.19;5053527;28;20059;-60
2021/04/14 11:23:27;;;;;;;6.05;1.85;;;;;;;23.76;54.88;102686.78;5061754;28;20445;-61
2021/04/14 11:26:17;;;;;;;6.55;1.42;;;;;;;23.81;53.29;102692.63;5070987;28;20043;-61
2021/04/14 11:28:54;;;;;;;98.30;8.75;;;;;;;23.75;54.12;102676.81;5047317;28;20043;-60
2021/04/14 11:31:37;;;;;;;12.52;1.52;;;;;;;23.76;53.57;102684.88;5052195;28;20426;-64
2021/04/14 11:34:25;;;;;;;4.90;0.98;;;;;;;23.75;53.47;102701.53;5054298;28;20491;-62
2021/04/14 11:37:02;;;;;;;4.07;1.08;;;;;;;23.76;53.30;102684.03;5053228;28;20033;-61
2021/04/14 11:39:32;;;;;;;1.50;0.75;;;;;;;23.70;52.45;102683.66;5052671;28;20143;-60